House, NM

1:27 AM MDT on August 31, 2014 (GMT -0600)
Melrose Gunnery Range | Change Station
CLOSE
Current Station
Airport
Location: Melrose Gunnery Range,
Elevation: 4350 ft
Nearby Weather Stations

Elev 4350 ft 34.30 °N, 103.80 °W | Updated 31 minutes ago

Clear
Clear
74 °F
Feels Like 74 °F
N
18
Wind Variable Wind from South
Gusts 25 mph

Today
High -- | Low -- °F
--% Chance of Precip.
Yesterday
High -- | Low -- °F
Precip. -- in
6:28 AM 7:23 PM
Waxing Crescent, 28% visible
Pressure 29.83 in
Visibility 10.0 miles
Clouds Clear
Dew Point 42 °F
Humidity 32%
Rainfall 0.00 in
Snow Depth Not available.
UV 0 out of 12
Pollen 9.70 out of 12
Air Quality Not available.
Flu Activity Not available.
METAR K4MR 310656Z AUTO 17016G22KT 10SM CLR 23/06 A3003 RMK AO2 SLP100 T02340056 403300163

More Conditions Fewer Conditions

Pressure 29.83 in
Visibility 10.0 miles
Clouds Clear
Dew Point 42 °F
Humidity 32%
Rainfall 0.00 in
Snow Depth Not available.
UV 0 out of 12
Pollen 9.70 out of 12
Air Quality Not available.
Flu Activity Not available.
METAR K4MR 310656Z AUTO 17016G22KT 10SM CLR 23/06 A3003 RMK AO2 SLP100 T02340056 403300163

More Conditions Fewer Conditions

10-Day Weather Forecast

Almanac

Astronomy

Aug. 31, 2014 Rise Set
Actual Time 6:28 AM MDT 7:23 PM MDT
Civil Twilight 6:02 AM MDT 7:49 PM MDT
Nautical Twilight 5:31 AM MDT 8:19 PM MDT
Astronomical Twilight 5:00 AM MDT 8:51 PM MDT
Moon 12:02 PM MDT 10:55 PM MDT
Length of Visible Light 13h 47m
Length of Day
12h 55m
Tomorrow will be 2m 4s shorter.
Waxing Crescent, 28% of the Moon is Illuminated
Today
Waxing Crescent
Sep 2
First Quarter
Sep 8
Full
Sep 15
Last Quarter
Sep 24
New

Today's Extremes

State Highs State Lows

Community

WunderPhotos

Upload Photos

1,748,809 photos uploaded!

Nearby

Snow Depth

Station Depth Elevation
Wesner Springs 1 in 11120 ft
Gallegos Peak 0 in 9800 ft
Tolby 0 in 10180 ft
Sierra Blanca 1 in 10280 ft
Red River Pass #2 0 in 9850 ft

Earthquake Activity

City Distance Mag. Time & Date
No recent earthquake activity has been reported nearby.
Minimum magnitude displayed is 2.5.

Coastal Water Temperatures

Place Temperature
No Stations Reporting

Nearby Weather Stations